Ataturk International Airport Istanbul TR
ICAO: LTBA
IATA: IST
Category: Large
Scheduled Services: Yes

Elevation: 163 ft
TransAlt. 10000 ft.

Airport Communications:
YESILKOY APP:120.5
ATIS:128.2
YESILKOY DELIVERY:121.7
YESILKOY GND:121.8
YESILKOY RAMP:121.9
YESILKOY TWR:118.1

LTBA Zoom In..

If you have problems with the map follow the link
https://www.worldairports.se/pages/airport.php?
ICAO=LTBA

Runways:

(A) RW 05 length 8465 ft width 197 ft
ILS 110.30 / hdg 55

(B) RW 17L length 9843 ft width 148 ft
ILS 111.10 / hdg 174

(C) RW 17R length 9843 ft width 148 ft
---- / hdg 174

(D) RW 23 length 8465 ft width 197 ft
ILS 111.90 / hdg 235

(E) RW 35L length 9843 ft width 148 ft
ILS 111.50 / hdg 354

(F) RW 35R length 9843 ft width 148 ft
ILS 111.30 / hdg 354

Location; LTBA
Day. 22 / Time. 11.20 Zulu
* QNH: 1019
* Temperature: 20° c. 68°f.
* Wind from: VRB° Speed 14 kn.
Dewpoint: 13° c.
Visibility: 10 km or more.
Clouds: Scattered 2600 ft.
No significant changes expected in the near future.

LTBA 221120Z VRB14KT 9999 SCT026 20/13 Q1019 NOSIG


Wind From VRB°
Speed 14 kn.

 
 
jpsmedia.com for Web Design worldairports.se 2018   terms of use